sensor_id;sensor_type;location;lat;lon;timestamp;P1;durP1;ratioP1;P2;durP2;ratioP2
69280;SDS011;56392;51.082;17.080;2024-01-07T00:00:32;16.27;;;5.45;;
69280;SDS011;56392;51.082;17.080;2024-01-07T00:06:17;17.83;;;6.00;;
69280;SDS011;56392;51.082;17.080;2024-01-07T00:11:40;17.13;;;5.95;;
69280;SDS011;56392;51.082;17.080;2024-01-07T00:17:03;14.83;;;5.23;;
69280;SDS011;56392;51.082;17.080;2024-01-07T00:22:28;15.85;;;5.90;;
69280;SDS011;56392;51.082;17.080;2024-01-07T00:27:52;15.27;;;4.93;;
69280;SDS011;56392;51.082;17.080;2024-01-07T00:33:16;16.17;;;5.70;;
69280;SDS011;56392;51.082;17.080;2024-01-07T00:38:41;15.90;;;5.55;;
69280;SDS011;56392;51.082;17.080;2024-01-07T00:44:04;15.87;;;5.43;;
69280;SDS011;56392;51.082;17.080;2024-01-07T00:49:31;13.68;;;5.18;;
69280;SDS011;56392;51.082;17.080;2024-01-07T00:54:55;15.07;;;5.25;;
69280;SDS011;56392;51.082;17.080;2024-01-07T01:00:19;17.10;;;5.37;;
69280;SDS011;56392;51.082;17.080;2024-01-07T01:05:42;14.18;;;5.03;;
69280;SDS011;56392;51.082;17.080;2024-01-07T01:11:06;14.10;;;5.27;;
69280;SDS011;56392;51.082;17.080;2024-01-07T01:16:31;15.52;;;5.20;;
69280;SDS011;56392;51.082;17.080;2024-01-07T01:21:54;17.70;;;5.53;;
69280;SDS011;56392;51.082;17.080;2024-01-07T01:27:19;19.40;;;5.50;;
69280;SDS011;56392;51.082;17.080;2024-01-07T01:32:44;17.50;;;5.78;;
69280;SDS011;56392;51.082;17.080;2024-01-07T01:38:08;13.67;;;5.13;;
69280;SDS011;56392;51.082;17.080;2024-01-07T01:43:32;14.57;;;5.57;;
69280;SDS011;56392;51.082;17.080;2024-01-07T01:48:55;15.27;;;5.32;;
69280;SDS011;56392;51.082;17.080;2024-01-07T01:54:19;14.03;;;4.87;;
69280;SDS011;56392;51.082;17.080;2024-01-07T01:59:45;15.48;;;5.68;;
69280;SDS011;56392;51.082;17.080;2024-01-07T02:05:08;14.23;;;5.57;;
69280;SDS011;56392;51.082;17.080;2024-01-07T02:10:31;16.88;;;5.60;;
69280;SDS011;56392;51.082;17.080;2024-01-07T02:15:57;14.80;;;5.78;;
69280;SDS011;56392;51.082;17.080;2024-01-07T02:21:20;16.13;;;6.13;;
69280;SDS011;56392;51.082;17.080;2024-01-07T02:26:45;13.98;;;5.07;;
69280;SDS011;56392;51.082;17.080;2024-01-07T02:32:08;15.00;;;5.60;;
69280;SDS011;56392;51.082;17.080;2024-01-07T02:37:31;19.13;;;6.55;;
69280;SDS011;56392;51.082;17.080;2024-01-07T02:42:56;18.85;;;5.57;;
69280;SDS011;56392;51.082;17.080;2024-01-07T02:48:19;16.37;;;5.80;;
69280;SDS011;56392;51.082;17.080;2024-01-07T02:53:43;18.35;;;5.43;;
69280;SDS011;56392;51.082;17.080;2024-01-07T02:59:07;15.27;;;4.73;;
69280;SDS011;56392;51.082;17.080;2024-01-07T03:04:31;18.77;;;5.50;;
69280;SDS011;56392;51.082;17.080;2024-01-07T03:09:55;17.52;;;5.68;;
69280;SDS011;56392;51.082;17.080;2024-01-07T03:15:19;17.93;;;5.63;;
69280;SDS011;56392;51.082;17.080;2024-01-07T03:20:43;14.55;;;5.25;;
69280;SDS011;56392;51.082;17.080;2024-01-07T03:26:06;19.97;;;6.63;;
69280;SDS011;56392;51.082;17.080;2024-01-07T03:31:31;19.52;;;6.25;;
69280;SDS011;56392;51.082;17.080;2024-01-07T03:36:54;16.90;;;5.95;;
69280;SDS011;56392;51.082;17.080;2024-01-07T03:42:18;15.80;;;6.07;;
69280;SDS011;56392;51.082;17.080;2024-01-07T03:47:44;16.77;;;5.70;;
69280;SDS011;56392;51.082;17.080;2024-01-07T03:53:07;14.23;;;5.67;;
69280;SDS011;56392;51.082;17.080;2024-01-07T03:58:30;15.00;;;6.18;;
69280;SDS011;56392;51.082;17.080;2024-01-07T04:03:55;16.08;;;5.40;;
69280;SDS011;56392;51.082;17.080;2024-01-07T04:09:18;15.77;;;5.23;;
69280;SDS011;56392;51.082;17.080;2024-01-07T04:14:42;11.15;;;4.53;;
69280;SDS011;56392;51.082;17.080;2024-01-07T04:20:07;12.33;;;4.60;;
69280;SDS011;56392;51.082;17.080;2024-01-07T04:25:31;13.00;;;4.43;;
69280;SDS011;56392;51.082;17.080;2024-01-07T04:30:54;13.82;;;5.07;;
69280;SDS011;56392;51.082;17.080;2024-01-07T04:36:18;12.13;;;4.60;;
69280;SDS011;56392;51.082;17.080;2024-01-07T04:41:42;11.70;;;4.40;;
69280;SDS011;56392;51.082;17.080;2024-01-07T04:47:05;11.77;;;4.50;;
69280;SDS011;56392;51.082;17.080;2024-01-07T04:52:47;12.40;;;5.20;;
69280;SDS011;56392;51.082;17.080;2024-01-07T04:58:11;13.73;;;5.18;;
69280;SDS011;56392;51.082;17.080;2024-01-07T05:03:34;11.03;;;4.53;;
69280;SDS011;56392;51.082;17.080;2024-01-07T05:09:01;12.80;;;4.53;;
69280;SDS011;56392;51.082;17.080;2024-01-07T05:14:26;12.47;;;4.90;;
69280;SDS011;56392;51.082;17.080;2024-01-07T05:19:49;12.02;;;4.38;;
69280;SDS011;56392;51.082;17.080;2024-01-07T05:25:13;12.77;;;4.43;;
69280;SDS011;56392;51.082;17.080;2024-01-07T05:30:36;12.27;;;4.60;;
69280;SDS011;56392;51.082;17.080;2024-01-07T05:36:01;10.75;;;4.25;;
69280;SDS011;56392;51.082;17.080;2024-01-07T05:41:25;12.80;;;4.33;;
69280;SDS011;56392;51.082;17.080;2024-01-07T05:46:48;10.93;;;4.15;;
69280;SDS011;56392;51.082;17.080;2024-01-07T05:52:11;12.30;;;4.20;;
69280;SDS011;56392;51.082;17.080;2024-01-07T05:57:36;10.67;;;3.97;;
69280;SDS011;56392;51.082;17.080;2024-01-07T06:02:59;10.13;;;4.20;;
69280;SDS011;56392;51.082;17.080;2024-01-07T06:08:23;10.80;;;3.67;;
69280;SDS011;56392;51.082;17.080;2024-01-07T06:13:48;9.73;;;3.30;;
69280;SDS011;56392;51.082;17.080;2024-01-07T06:19:12;13.13;;;3.63;;
69280;SDS011;56392;51.082;17.080;2024-01-07T06:24:36;8.50;;;3.27;;
69280;SDS011;56392;51.082;17.080;2024-01-07T06:30:00;11.93;;;4.13;;
69280;SDS011;56392;51.082;17.080;2024-01-07T06:35:25;10.57;;;3.83;;
69280;SDS011;56392;51.082;17.080;2024-01-07T06:40:49;8.68;;;3.45;;
69280;SDS011;56392;51.082;17.080;2024-01-07T06:46:13;8.48;;;3.00;;
69280;SDS011;56392;51.082;17.080;2024-01-07T06:51:38;8.03;;;2.80;;
69280;SDS011;56392;51.082;17.080;2024-01-07T06:57:01;8.50;;;3.10;;
69280;SDS011;56392;51.082;17.080;2024-01-07T07:02:26;9.13;;;3.23;;
69280;SDS011;56392;51.082;17.080;2024-01-07T07:07:50;9.32;;;2.78;;
69280;SDS011;56392;51.082;17.080;2024-01-07T07:13:14;8.70;;;2.40;;
69280;SDS011;56392;51.082;17.080;2024-01-07T07:18:38;6.90;;;2.30;;
69280;SDS011;56392;51.082;17.080;2024-01-07T07:24:05;9.23;;;2.60;;
69280;SDS011;56392;51.082;17.080;2024-01-07T07:29:28;7.30;;;2.30;;
69280;SDS011;56392;51.082;17.080;2024-01-07T07:34:53;7.78;;;2.20;;
69280;SDS011;56392;51.082;17.080;2024-01-07T07:40:16;6.70;;;2.03;;
69280;SDS011;56392;51.082;17.080;2024-01-07T07:45:41;8.27;;;2.70;;
69280;SDS011;56392;51.082;17.080;2024-01-07T07:51:07;7.35;;;2.20;;
69280;SDS011;56392;51.082;17.080;2024-01-07T07:56:31;6.47;;;2.07;;
69280;SDS011;56392;51.082;17.080;2024-01-07T08:01:55;7.85;;;2.00;;
69280;SDS011;56392;51.082;17.080;2024-01-07T08:07:22;7.80;;;2.10;;
69280;SDS011;56392;51.082;17.080;2024-01-07T08:12:46;6.77;;;2.30;;
69280;SDS011;56392;51.082;17.080;2024-01-07T08:18:12;8.27;;;2.65;;
69280;SDS011;56392;51.082;17.080;2024-01-07T08:23:37;6.30;;;1.90;;
69280;SDS011;56392;51.082;17.080;2024-01-07T08:29:06;7.22;;;2.40;;
69280;SDS011;56392;51.082;17.080;2024-01-07T08:34:33;7.72;;;2.42;;
69280;SDS011;56392;51.082;17.080;2024-01-07T08:39:58;7.23;;;2.30;;
69280;SDS011;56392;51.082;17.080;2024-01-07T08:45:22;7.68;;;2.28;;
69280;SDS011;56392;51.082;17.080;2024-01-07T08:50:46;8.93;;;2.53;;
69280;SDS011;56392;51.082;17.080;2024-01-07T08:56:14;7.88;;;2.50;;
69280;SDS011;56392;51.082;17.080;2024-01-07T09:01:38;9.55;;;2.60;;
69280;SDS011;56392;51.082;17.080;2024-01-07T09:07:06;9.00;;;2.70;;
69280;SDS011;56392;51.082;17.080;2024-01-07T09:12:31;8.43;;;2.60;;
69280;SDS011;56392;51.082;17.080;2024-01-07T09:17:54;6.57;;;2.30;;
69280;SDS011;56392;51.082;17.080;2024-01-07T09:23:18;7.72;;;2.85;;
69280;SDS011;56392;51.082;17.080;2024-01-07T09:28:42;8.00;;;2.67;;
69280;SDS011;56392;51.082;17.080;2024-01-07T09:34:06;9.53;;;3.33;;
69280;SDS011;56392;51.082;17.080;2024-01-07T09:39:29;10.63;;;3.75;;
69280;SDS011;56392;51.082;17.080;2024-01-07T09:44:56;11.93;;;3.30;;
69280;SDS011;56392;51.082;17.080;2024-01-07T09:50:19;9.57;;;3.30;;
69280;SDS011;56392;51.082;17.080;2024-01-07T09:55:46;9.75;;;3.30;;
69280;SDS011;56392;51.082;17.080;2024-01-07T10:01:17;8.80;;;2.73;;
69280;SDS011;56392;51.082;17.080;2024-01-07T10:06:40;10.05;;;2.75;;
69280;SDS011;56392;51.082;17.080;2024-01-07T10:12:03;8.93;;;3.07;;
69280;SDS011;56392;51.082;17.080;2024-01-07T10:17:28;7.72;;;2.47;;
69280;SDS011;56392;51.082;17.080;2024-01-07T10:22:53;8.85;;;2.47;;
69280;SDS011;56392;51.082;17.080;2024-01-07T10:28:16;10.70;;;3.00;;
69280;SDS011;56392;51.082;17.080;2024-01-07T10:33:41;9.80;;;2.80;;
69280;SDS011;56392;51.082;17.080;2024-01-07T10:39:07;8.57;;;2.73;;
69280;SDS011;56392;51.082;17.080;2024-01-07T10:44:31;9.55;;;2.75;;
69280;SDS011;56392;51.082;17.080;2024-01-07T10:49:58;9.98;;;3.20;;
69280;SDS011;56392;51.082;17.080;2024-01-07T10:55:22;9.10;;;2.77;;
69280;SDS011;56392;51.082;17.080;2024-01-07T11:00:48;8.65;;;2.78;;
69280;SDS011;56392;51.082;17.080;2024-01-07T11:06:16;9.23;;;2.63;;
69280;SDS011;56392;51.082;17.080;2024-01-07T11:11:44;9.73;;;3.10;;
69280;SDS011;56392;51.082;17.080;2024-01-07T11:17:07;11.57;;;2.85;;
69280;SDS011;56392;51.082;17.080;2024-01-07T11:22:33;12.47;;;3.73;;
69280;SDS011;56392;51.082;17.080;2024-01-07T11:28:00;10.25;;;3.30;;
69280;SDS011;56392;51.082;17.080;2024-01-07T11:33:25;17.60;;;4.37;;
69280;SDS011;56392;51.082;17.080;2024-01-07T11:38:56;11.27;;;3.65;;
69280;SDS011;56392;51.082;17.080;2024-01-07T11:44:23;17.45;;;5.00;;
69280;SDS011;56392;51.082;17.080;2024-01-07T11:49:47;13.93;;;4.03;;
69280;SDS011;56392;51.082;17.080;2024-01-07T11:55:12;18.38;;;5.15;;
69280;SDS011;56392;51.082;17.080;2024-01-07T12:00:35;12.67;;;4.23;;
69280;SDS011;56392;51.082;17.080;2024-01-07T12:05:58;13.70;;;4.18;;
69280;SDS011;56392;51.082;17.080;2024-01-07T12:11:26;18.35;;;5.10;;
69280;SDS011;56392;51.082;17.080;2024-01-07T12:16:50;13.90;;;4.40;;
69280;SDS011;56392;51.082;17.080;2024-01-07T12:22:13;11.52;;;4.10;;
69280;SDS011;56392;51.082;17.080;2024-01-07T12:27:38;15.77;;;5.30;;
69280;SDS011;56392;51.082;17.080;2024-01-07T12:33:04;14.50;;;4.50;;
69280;SDS011;56392;51.082;17.080;2024-01-07T12:38:31;17.20;;;5.95;;
69280;SDS011;56392;51.082;17.080;2024-01-07T12:43:56;12.47;;;4.37;;
69280;SDS011;56392;51.082;17.080;2024-01-07T12:49:21;17.75;;;4.90;;
69280;SDS011;56392;51.082;17.080;2024-01-07T12:54:44;13.90;;;4.80;;
69280;SDS011;56392;51.082;17.080;2024-01-07T13:00:10;13.30;;;4.47;;
69280;SDS011;56392;51.082;17.080;2024-01-07T13:05:35;14.02;;;5.07;;
69280;SDS011;56392;51.082;17.080;2024-01-07T13:10:58;15.80;;;5.83;;
69280;SDS011;56392;51.082;17.080;2024-01-07T13:16:26;13.88;;;5.00;;
69280;SDS011;56392;51.082;17.080;2024-01-07T13:21:49;16.33;;;5.63;;
69280;SDS011;56392;51.082;17.080;2024-01-07T13:27:15;17.17;;;5.88;;
69280;SDS011;56392;51.082;17.080;2024-01-07T13:32:40;19.02;;;5.85;;
69280;SDS011;56392;51.082;17.080;2024-01-07T13:38:03;17.13;;;6.00;;
69280;SDS011;56392;51.082;17.080;2024-01-07T13:43:27;15.57;;;5.32;;
69280;SDS011;56392;51.082;17.080;2024-01-07T13:48:54;18.23;;;6.27;;
69280;SDS011;56392;51.082;17.080;2024-01-07T13:54:17;17.58;;;5.55;;
69280;SDS011;56392;51.082;17.080;2024-01-07T13:59:41;14.82;;;5.43;;
69280;SDS011;56392;51.082;17.080;2024-01-07T14:05:06;15.00;;;4.97;;
69280;SDS011;56392;51.082;17.080;2024-01-07T14:10:32;13.80;;;5.28;;
69280;SDS011;56392;51.082;17.080;2024-01-07T14:15:58;13.07;;;4.67;;
69280;SDS011;56392;51.082;17.080;2024-01-07T14:21:23;17.95;;;5.35;;
69280;SDS011;56392;51.082;17.080;2024-01-07T14:26:47;15.98;;;5.03;;
69280;SDS011;56392;51.082;17.080;2024-01-07T14:32:10;15.27;;;5.87;;
69280;SDS011;56392;51.082;17.080;2024-01-07T14:37:36;17.23;;;6.20;;
69280;SDS011;56392;51.082;17.080;2024-01-07T14:42:59;16.13;;;5.80;;
69280;SDS011;56392;51.082;17.080;2024-01-07T14:48:24;16.05;;;6.28;;
69280;SDS011;56392;51.082;17.080;2024-01-07T14:53:48;16.33;;;6.20;;
69280;SDS011;56392;51.082;17.080;2024-01-07T14:59:12;20.20;;;6.37;;
69280;SDS011;56392;51.082;17.080;2024-01-07T15:04:35;16.98;;;5.80;;
69280;SDS011;56392;51.082;17.080;2024-01-07T15:10:02;19.00;;;6.47;;
69280;SDS011;56392;51.082;17.080;2024-01-07T15:15:26;17.42;;;6.93;;
69280;SDS011;56392;51.082;17.080;2024-01-07T15:20:52;19.30;;;6.57;;
69280;SDS011;56392;51.082;17.080;2024-01-07T15:26:17;16.53;;;6.03;;
69280;SDS011;56392;51.082;17.080;2024-01-07T15:31:41;21.20;;;7.43;;
69280;SDS011;56392;51.082;17.080;2024-01-07T15:37:04;20.27;;;7.30;;
69280;SDS011;56392;51.082;17.080;2024-01-07T15:42:29;18.60;;;6.70;;
69280;SDS011;56392;51.082;17.080;2024-01-07T15:47:54;22.10;;;7.40;;
69280;SDS011;56392;51.082;17.080;2024-01-07T15:53:18;21.90;;;7.63;;
69280;SDS011;56392;51.082;17.080;2024-01-07T15:58:42;22.15;;;8.07;;
69280;SDS011;56392;51.082;17.080;2024-01-07T16:04:08;18.13;;;7.30;;
69280;SDS011;56392;51.082;17.080;2024-01-07T16:09:33;18.20;;;7.50;;
69280;SDS011;56392;51.082;17.080;2024-01-07T16:15:01;20.20;;;6.97;;
69280;SDS011;56392;51.082;17.080;2024-01-07T16:20:28;18.70;;;7.40;;
69280;SDS011;56392;51.082;17.080;2024-01-07T16:25:54;23.20;;;8.07;;
69280;SDS011;56392;51.082;17.080;2024-01-07T16:31:19;22.27;;;7.63;;
69280;SDS011;56392;51.082;17.080;2024-01-07T16:36:42;21.33;;;7.75;;
69280;SDS011;56392;51.082;17.080;2024-01-07T16:42:06;20.80;;;8.38;;
69280;SDS011;56392;51.082;17.080;2024-01-07T16:47:31;23.33;;;8.93;;
69280;SDS011;56392;51.082;17.080;2024-01-07T16:52:54;21.77;;;8.02;;
69280;SDS011;56392;51.082;17.080;2024-01-07T16:58:18;20.47;;;8.50;;
69280;SDS011;56392;51.082;17.080;2024-01-07T17:03:43;26.02;;;9.07;;
69280;SDS011;56392;51.082;17.080;2024-01-07T17:09:07;20.98;;;8.55;;
69280;SDS011;56392;51.082;17.080;2024-01-07T17:14:32;20.90;;;8.70;;
69280;SDS011;56392;51.082;17.080;2024-01-07T17:19:57;22.67;;;8.68;;
69280;SDS011;56392;51.082;17.080;2024-01-07T17:25:22;24.70;;;9.33;;
69280;SDS011;56392;51.082;17.080;2024-01-07T17:30:45;21.58;;;8.52;;
69280;SDS011;56392;51.082;17.080;2024-01-07T17:36:10;22.40;;;8.50;;
69280;SDS011;56392;51.082;17.080;2024-01-07T17:41:36;23.23;;;9.00;;
69280;SDS011;56392;51.082;17.080;2024-01-07T17:47:07;26.40;;;9.13;;
69280;SDS011;56392;51.082;17.080;2024-01-07T17:52:32;23.80;;;9.10;;
69280;SDS011;56392;51.082;17.080;2024-01-07T17:57:57;21.65;;;8.15;;
69280;SDS011;56392;51.082;17.080;2024-01-07T18:03:20;23.35;;;8.60;;
69280;SDS011;56392;51.082;17.080;2024-01-07T18:08:46;21.40;;;7.83;;
69280;SDS011;56392;51.082;17.080;2024-01-07T18:14:09;23.90;;;8.52;;
69280;SDS011;56392;51.082;17.080;2024-01-07T18:19:35;21.93;;;8.63;;
69280;SDS011;56392;51.082;17.080;2024-01-07T18:25:00;28.45;;;9.65;;
69280;SDS011;56392;51.082;17.080;2024-01-07T18:30:23;23.13;;;8.63;;
69280;SDS011;56392;51.082;17.080;2024-01-07T18:35:47;22.60;;;8.67;;
69280;SDS011;56392;51.082;17.080;2024-01-07T18:41:16;26.88;;;8.82;;
69280;SDS011;56392;51.082;17.080;2024-01-07T18:46:40;23.10;;;8.53;;
69280;SDS011;56392;51.082;17.080;2024-01-07T18:52:06;22.33;;;7.63;;
69280;SDS011;56392;51.082;17.080;2024-01-07T18:57:33;24.63;;;9.02;;
69280;SDS011;56392;51.082;17.080;2024-01-07T19:02:57;25.43;;;8.50;;
69280;SDS011;56392;51.082;17.080;2024-01-07T19:08:20;20.98;;;8.05;;
69280;SDS011;56392;51.082;17.080;2024-01-07T19:13:44;27.20;;;9.00;;
69280;SDS011;56392;51.082;17.080;2024-01-07T19:19:08;24.42;;;8.88;;
69280;SDS011;56392;51.082;17.080;2024-01-07T19:24:33;21.55;;;8.63;;
69280;SDS011;56392;51.082;17.080;2024-01-07T19:29:59;22.37;;;7.93;;
69280;SDS011;56392;51.082;17.080;2024-01-07T19:35:22;24.67;;;9.10;;
69280;SDS011;56392;51.082;17.080;2024-01-07T19:40:45;22.83;;;8.07;;
69280;SDS011;56392;51.082;17.080;2024-01-07T19:46:13;19.95;;;8.45;;
69280;SDS011;56392;51.082;17.080;2024-01-07T19:51:45;24.13;;;8.23;;
69280;SDS011;56392;51.082;17.080;2024-01-07T19:57:08;21.53;;;7.97;;
69280;SDS011;56392;51.082;17.080;2024-01-07T20:02:32;26.20;;;7.72;;
69280;SDS011;56392;51.082;17.080;2024-01-07T20:07:55;25.07;;;8.93;;
69280;SDS011;56392;51.082;17.080;2024-01-07T20:13:18;23.02;;;7.70;;
69280;SDS011;56392;51.082;17.080;2024-01-07T20:18:46;22.35;;;8.25;;
69280;SDS011;56392;51.082;17.080;2024-01-07T20:24:11;32.47;;;9.03;;
69280;SDS011;56392;51.082;17.080;2024-01-07T20:29:34;28.42;;;9.93;;
69280;SDS011;56392;51.082;17.080;2024-01-07T20:34:59;30.70;;;9.20;;
69280;SDS011;56392;51.082;17.080;2024-01-07T20:40:23;37.83;;;11.63;;
69280;SDS011;56392;51.082;17.080;2024-01-07T20:45:49;24.83;;;9.35;;
69280;SDS011;56392;51.082;17.080;2024-01-07T20:51:15;30.00;;;10.47;;
69280;SDS011;56392;51.082;17.080;2024-01-07T20:56:38;24.98;;;9.07;;
69280;SDS011;56392;51.082;17.080;2024-01-07T21:02:02;25.30;;;9.17;;
69280;SDS011;56392;51.082;17.080;2024-01-07T21:07:27;29.98;;;9.15;;
69280;SDS011;56392;51.082;17.080;2024-01-07T21:12:54;26.88;;;10.50;;
69280;SDS011;56392;51.082;17.080;2024-01-07T21:18:19;31.43;;;10.47;;
69280;SDS011;56392;51.082;17.080;2024-01-07T21:23:43;28.38;;;9.63;;
69280;SDS011;56392;51.082;17.080;2024-01-07T21:29:06;35.90;;;10.53;;
69280;SDS011;56392;51.082;17.080;2024-01-07T21:34:30;30.48;;;9.93;;
69280;SDS011;56392;51.082;17.080;2024-01-07T21:39:54;29.27;;;10.38;;
69280;SDS011;56392;51.082;17.080;2024-01-07T21:45:17;30.40;;;9.50;;
69280;SDS011;56392;51.082;17.080;2024-01-07T21:50:41;32.22;;;10.40;;
69280;SDS011;56392;51.082;17.080;2024-01-07T21:56:06;25.33;;;9.93;;
69280;SDS011;56392;51.082;17.080;2024-01-07T22:01:29;31.63;;;10.40;;
69280;SDS011;56392;51.082;17.080;2024-01-07T22:06:53;33.33;;;10.80;;
69280;SDS011;56392;51.082;17.080;2024-01-07T22:12:17;30.53;;;10.63;;
69280;SDS011;56392;51.082;17.080;2024-01-07T22:17:40;30.30;;;10.10;;
69280;SDS011;56392;51.082;17.080;2024-01-07T22:23:04;28.23;;;9.77;;
69280;SDS011;56392;51.082;17.080;2024-01-07T22:28:28;29.52;;;9.80;;
69280;SDS011;56392;51.082;17.080;2024-01-07T22:33:52;36.72;;;11.02;;
69280;SDS011;56392;51.082;17.080;2024-01-07T22:39:16;28.87;;;10.63;;
69280;SDS011;56392;51.082;17.080;2024-01-07T22:44:41;28.10;;;9.23;;
69280;SDS011;56392;51.082;17.080;2024-01-07T22:50:04;27.13;;;9.40;;
69280;SDS011;56392;51.082;17.080;2024-01-07T22:55:29;24.90;;;9.60;;
69280;SDS011;56392;51.082;17.080;2024-01-07T23:00:55;28.27;;;10.80;;
69280;SDS011;56392;51.082;17.080;2024-01-07T23:06:18;27.37;;;9.37;;
69280;SDS011;56392;51.082;17.080;2024-01-07T23:11:47;30.40;;;10.68;;
69280;SDS011;56392;51.082;17.080;2024-01-07T23:17:11;25.67;;;10.10;;
69280;SDS011;56392;51.082;17.080;2024-01-07T23:22:35;28.38;;;10.52;;
69280;SDS011;56392;51.082;17.080;2024-01-07T23:28:00;28.48;;;9.15;;
69280;SDS011;56392;51.082;17.080;2024-01-07T23:33:24;22.43;;;9.17;;
69280;SDS011;56392;51.082;17.080;2024-01-07T23:38:47;26.95;;;9.57;;
69280;SDS011;56392;51.082;17.080;2024-01-07T23:44:11;27.23;;;9.57;;
69280;SDS011;56392;51.082;17.080;2024-01-07T23:49:36;25.65;;;9.23;;
69280;SDS011;56392;51.082;17.080;2024-01-07T23:54:58;21.30;;;8.68;;
